createdAt,value
2022-08-18T00:02:21.978Z,11.45
2022-08-18T00:04:57.112Z,7.47
2022-08-18T00:07:30.457Z,9.35
2022-08-18T00:10:01.443Z,9.95
2022-08-18T00:12:33.665Z,10.07
2022-08-18T00:15:05.579Z,7.18
2022-08-18T00:17:39.063Z,8.07
2022-08-18T00:20:12.166Z,10.45
2022-08-18T00:22:42.745Z,10.73
2022-08-18T00:25:14.734Z,11.40
2022-08-18T00:27:44.673Z,12.15
2022-08-18T00:30:18.400Z,13.30
2022-08-18T00:32:53.730Z,10.93
2022-08-18T00:35:29.121Z,8.30
2022-08-18T00:38:02.171Z,13.90
2022-08-18T00:40:37.827Z,9.38
2022-08-18T00:43:10.284Z,12.80
2022-08-18T00:45:45.553Z,9.15
2022-08-18T00:48:18.704Z,9.63
2022-08-18T00:50:54.642Z,15.40
2022-08-18T00:53:30.363Z,12.98
2022-08-18T00:56:03.403Z,15.52
2022-08-18T00:58:37.775Z,13.13
2022-08-18T01:01:09.843Z,16.90
2022-08-18T01:03:44.928Z,16.42
2022-08-18T01:06:19.985Z,13.20
2022-08-18T01:08:49.773Z,11.45
2022-08-18T01:11:19.517Z,15.75
2022-08-18T01:13:49.248Z,14.25
2022-08-18T01:16:32.410Z,10.30
2022-08-18T01:19:17.137Z,9.82
2022-08-18T01:21:55.008Z,11.60
2022-08-18T01:24:43.469Z,11.45
2022-08-18T01:27:18.966Z,5.55
2022-08-18T01:29:49.079Z,11.10
2022-08-18T01:32:20.728Z,6.90
2022-08-18T01:34:52.452Z,10.25
2022-08-18T01:37:24.961Z,7.28
2022-08-18T01:41:25.256Z,9.57
2022-08-18T01:42:47.387Z,10.65
2022-08-18T01:45:20.770Z,11.48
2022-08-18T01:47:50.764Z,15.65
2022-08-18T01:50:21.254Z,8.15
2022-08-18T01:52:53.490Z,8.07
2022-08-18T01:55:28.517Z,6.40
2022-08-18T01:57:58.611Z,9.57
2022-08-18T02:00:28.460Z,8.60
2022-08-18T02:03:02.159Z,8.02
2022-08-18T02:05:37.212Z,5.95
2022-08-18T02:08:08.274Z,6.32
2022-08-18T02:10:42.054Z,8.73
2022-08-18T02:13:12.116Z,10.13
2022-08-18T02:15:43.011Z,6.45
2022-08-18T02:18:45.239Z,10.70
2022-08-18T02:21:12.689Z,7.93
2022-08-18T02:23:49.261Z,6.60
2022-08-18T02:26:26.308Z,5.90
2022-08-18T02:28:56.073Z,7.93
2022-08-18T02:31:28.066Z,6.57
2022-08-18T02:33:57.837Z,5.82
2022-08-18T02:36:28.417Z,6.93
2022-08-18T02:38:59.901Z,6.70
2022-08-18T02:41:33.265Z,4.68
2022-08-18T02:44:03.485Z,6.25
2022-08-18T02:46:33.456Z,5.70
2022-08-18T02:49:03.665Z,5.70
2022-08-18T02:51:34.266Z,5.93
2022-08-18T02:54:05.232Z,8.48
2022-08-18T02:56:41.195Z,5.13
2022-08-18T02:59:16.984Z,4.85
2022-08-18T03:01:49.015Z,6.72
2022-08-18T03:04:25.292Z,7.88
2022-08-18T03:06:58.399Z,6.25
2022-08-18T03:09:29.405Z,5.15
2022-08-18T03:12:02.309Z,6.10
2022-08-18T03:14:32.537Z,5.68
2022-08-18T03:17:02.704Z,4.50
2022-08-18T03:19:32.873Z,5.43
2022-08-18T03:22:27.589Z,4.55
2022-08-18T03:24:55.891Z,5.25
2022-08-18T03:27:28.368Z,5.50
2022-08-18T03:29:58.736Z,8.35
2022-08-18T03:32:28.761Z,7.10
2022-08-18T03:34:59.527Z,4.57
2022-08-18T03:37:29.257Z,4.70
2022-08-18T03:39:59.290Z,12.02
2022-08-18T03:42:31.719Z,10.63
2022-08-18T03:45:12.532Z,10.38
2022-08-18T03:47:52.707Z,8.70
2022-08-18T03:50:25.662Z,9.95
2022-08-18T03:52:55.645Z,9.15
2022-08-18T03:55:25.436Z,7.80
2022-08-18T03:58:02.981Z,9.20
2022-08-18T04:00:34.372Z,5.63
2022-08-18T04:03:05.855Z,5.53
2022-08-18T04:05:36.577Z,8.95
2022-08-18T04:08:07.025Z,9.10
2022-08-18T04:10:38.380Z,11.60
2022-08-18T04:13:10.691Z,11.85
2022-08-18T04:15:40.455Z,8.43
2022-08-18T04:18:12.331Z,9.23
2022-08-18T04:20:58.931Z,9.55
2022-08-18T04:23:29.739Z,10.40
2022-08-18T04:26:10.397Z,8.57
2022-08-18T04:28:51.551Z,11.35
2022-08-18T04:31:24.521Z,5.75
2022-08-18T04:33:54.779Z,5.85
2022-08-18T04:36:24.532Z,4.72
2022-08-18T04:38:56.638Z,6.80
2022-08-18T04:41:27.921Z,6.70
2022-08-18T04:44:01.354Z,7.90
2022-08-18T04:46:32.321Z,5.45
2022-08-18T04:49:02.325Z,9.52
2022-08-18T04:52:27.063Z,13.48
2022-08-18T04:54:19.978Z,5.80
2022-08-18T04:56:49.701Z,5.70
2022-08-18T04:59:22.030Z,4.82
2022-08-18T05:01:51.786Z,5.90
2022-08-18T05:04:21.497Z,4.35
2022-08-18T05:06:51.483Z,9.00
2022-08-18T05:09:23.093Z,6.13
2022-08-18T05:11:53.767Z,8.05
2022-08-18T05:14:26.159Z,8.40
2022-08-18T05:16:56.151Z,13.52
2022-08-18T05:19:26.863Z,9.30
2022-08-18T05:22:00.083Z,6.05
2022-08-18T05:24:37.167Z,8.05
2022-08-18T05:27:08.342Z,5.95
2022-08-18T05:29:45.718Z,7.65
2022-08-18T05:32:41.014Z,11.23
2022-08-18T05:35:09.964Z,10.73
2022-08-18T05:37:51.347Z,8.80
2022-08-18T05:40:26.658Z,7.30
2022-08-18T05:42:59.961Z,9.35
2022-08-18T05:45:34.860Z,6.10
2022-08-18T05:48:04.778Z,12.30
2022-08-18T05:50:37.022Z,11.75
2022-08-18T05:53:13.947Z,10.43
2022-08-18T05:56:02.190Z,7.60
2022-08-18T05:58:46.284Z,7.47
2022-08-18T06:01:21.668Z,6.57
2022-08-18T06:03:56.407Z,4.50
2022-08-18T06:06:29.746Z,6.32
2022-08-18T06:09:06.265Z,5.25
2022-08-18T06:11:36.070Z,4.82
2022-08-18T06:14:05.882Z,7.05
2022-08-18T06:16:56.671Z,6.13
2022-08-18T06:19:37.221Z,6.57
2022-08-18T06:22:18.744Z,8.32
2022-08-18T06:24:57.658Z,10.30
2022-08-18T06:27:40.442Z,7.10
2022-08-18T06:30:17.335Z,5.40
2022-08-18T06:33:02.023Z,5.00
2022-08-18T06:35:38.553Z,8.35
2022-08-18T06:38:33.739Z,4.65
2022-08-18T06:41:05.835Z,5.82
2022-08-18T06:43:39.513Z,7.40
2022-08-18T06:46:15.577Z,5.03
2022-08-18T06:48:56.595Z,4.72
2022-08-18T06:51:31.037Z,2.90
2022-08-18T06:54:03.385Z,3.42
2022-08-18T06:56:48.627Z,3.03
2022-08-18T06:59:22.784Z,5.00
2022-08-18T07:01:57.898Z,3.28
2022-08-18T07:04:44.478Z,5.20
2022-08-18T07:07:23.702Z,4.25
2022-08-18T07:09:55.935Z,3.50
2022-08-18T07:12:32.695Z,3.47
2022-08-18T07:15:05.872Z,4.20
2022-08-18T07:17:42.519Z,3.60
2022-08-18T07:20:22.827Z,7.50
2022-08-18T07:22:59.802Z,4.45
2022-08-18T07:25:32.905Z,6.32
2022-08-18T07:28:02.972Z,4.95
2022-08-18T07:30:37.187Z,4.97
2022-08-18T07:33:17.092Z,4.93
2022-08-18T07:35:56.600Z,6.35
2022-08-18T07:38:49.192Z,3.58
2022-08-18T07:41:22.961Z,3.50
2022-08-18T07:44:07.535Z,3.88
2022-08-18T07:46:56.232Z,1.88
2022-08-18T07:49:29.562Z,5.60
2022-08-18T07:52:14.637Z,2.67
2022-08-18T07:55:07.662Z,2.78
2022-08-18T07:57:49.769Z,4.97
2022-08-18T08:00:47.825Z,2.88
2022-08-18T08:03:33.497Z,3.95
2022-08-18T08:06:11.820Z,4.68
2022-08-18T08:08:47.494Z,4.68
2022-08-18T08:11:29.544Z,6.68
2022-08-18T08:14:15.543Z,5.30
2022-08-18T08:16:50.177Z,6.03
2022-08-18T08:20:02.335Z,5.15
2022-08-18T08:22:36.168Z,4.32
2022-08-18T08:25:42.888Z,3.55
2022-08-18T08:28:14.616Z,4.07
2022-08-18T08:30:49.936Z,4.47
2022-08-18T08:33:27.514Z,4.75
2022-08-18T08:36:01.028Z,4.05
2022-08-18T08:38:42.940Z,5.50
2022-08-18T08:41:22.639Z,6.18
2022-08-18T08:44:03.340Z,2.65
2022-08-18T08:46:40.220Z,4.88
2022-08-18T08:49:19.737Z,3.58
2022-08-18T08:51:56.981Z,2.65
2022-08-18T08:54:33.557Z,6.22
2022-08-18T08:57:09.824Z,2.72
2022-08-18T08:59:42.262Z,5.75
2022-08-18T09:02:47.839Z,3.42
2022-08-18T09:05:21.809Z,3.60
2022-08-18T09:08:16.192Z,4.43
2022-08-18T09:11:18.956Z,3.45
2022-08-18T09:14:07.902Z,4.72
2022-08-18T09:16:50.966Z,4.00
2022-08-18T09:19:38.718Z,4.28
2022-08-18T09:22:16.228Z,2.72
2022-08-18T09:24:51.787Z,4.95
2022-08-18T09:27:53.747Z,3.72
2022-08-18T09:30:42.952Z,3.08
2022-08-18T09:33:23.075Z,8.20
2022-08-18T09:36:10.109Z,3.75
2022-08-18T09:39:02.131Z,5.25
2022-08-18T09:41:38.198Z,6.32
2022-08-18T09:47:06.212Z,4.63
2022-08-18T09:49:51.462Z,3.28
2022-08-18T09:53:02.457Z,6.15
2022-08-18T09:56:01.406Z,4.32
2022-08-18T09:58:57.334Z,3.92
2022-08-18T10:01:42.099Z,5.50
2022-08-18T10:04:51.700Z,5.30
2022-08-18T10:07:32.998Z,3.45
2022-08-18T10:11:01.579Z,2.88
2022-08-18T10:13:17.691Z,5.22
2022-08-18T10:16:11.032Z,4.90
2022-08-18T10:19:03.140Z,4.93
2022-08-18T10:22:07.116Z,4.35
2022-08-18T10:24:43.896Z,3.55
2022-08-18T10:27:49.053Z,6.40
2022-08-18T10:31:06.139Z,4.07
2022-08-18T10:33:59.280Z,2.70
2022-08-18T10:36:54.245Z,3.38
2022-08-18T10:39:46.982Z,4.00
2022-08-18T10:45:25.315Z,3.33
2022-08-18T10:48:16.609Z,5.20
2022-08-18T10:50:54.246Z,2.47
2022-08-18T10:53:39.014Z,3.58
2022-08-18T10:56:15.044Z,4.35
2022-08-18T10:59:20.207Z,3.47
2022-08-18T11:02:17.862Z,2.60
2022-08-18T11:04:58.651Z,2.15
2022-08-18T11:07:34.109Z,2.63
2022-08-18T11:10:57.712Z,2.83
2022-08-18T11:13:21.794Z,2.15
2022-08-18T11:16:03.985Z,2.47
2022-08-18T11:18:44.275Z,5.18
2022-08-18T11:21:33.461Z,2.95
2022-08-18T11:24:14.232Z,4.78
2022-08-18T11:26:52.419Z,2.35
2022-08-18T11:29:35.473Z,2.83
2022-08-18T11:35:07.725Z,3.97
2022-08-18T11:37:49.730Z,5.78
2022-08-18T11:43:41.168Z,3.85
2022-08-18T11:46:19.160Z,4.03
2022-08-18T11:48:58.187Z,1.88
2022-08-18T11:51:29.976Z,3.70
2022-08-18T11:54:02.528Z,3.55
2022-08-18T11:59:54.887Z,1.92
2022-08-18T12:02:28.846Z,4.63
2022-08-18T12:05:08.729Z,4.15
2022-08-18T12:07:57.411Z,3.55
2022-08-18T12:10:30.785Z,2.63
2022-08-18T12:13:01.514Z,2.42
2022-08-18T12:15:44.216Z,4.35
2022-08-18T12:21:08.106Z,3.53
2022-08-18T12:23:49.621Z,2.15
2022-08-18T12:26:38.836Z,2.28
2022-08-18T12:29:12.641Z,2.35
2022-08-18T12:31:50.303Z,3.53
2022-08-18T12:34:26.241Z,2.35
2022-08-18T12:36:58.712Z,3.65
2022-08-18T12:39:28.703Z,2.75
2022-08-18T12:41:59.536Z,5.05
2022-08-18T12:44:29.482Z,2.45
2022-08-18T12:47:04.322Z,3.60
2022-08-18T12:49:36.294Z,2.28
2022-08-18T12:52:08.230Z,2.25
2022-08-18T12:54:55.686Z,3.15
2022-08-18T12:57:51.690Z,3.25
2022-08-18T13:00:27.815Z,2.85
2022-08-18T13:03:02.142Z,3.78
2022-08-18T13:05:32.077Z,3.75
2022-08-18T13:08:05.942Z,4.40
2022-08-18T13:10:45.153Z,2.55
2022-08-18T13:13:16.118Z,2.85
2022-08-18T13:15:58.091Z,2.97
2022-08-18T13:18:31.227Z,2.20
2022-08-18T13:21:01.182Z,2.47
2022-08-18T13:23:32.065Z,3.13
2022-08-18T13:26:03.987Z,2.55
2022-08-18T13:28:36.192Z,2.22
2022-08-18T13:31:26.185Z,3.67
2022-08-18T13:33:59.942Z,2.80
2022-08-18T13:36:46.248Z,2.78
2022-08-18T13:39:20.515Z,3.17
2022-08-18T13:41:56.312Z,3.90
2022-08-18T13:44:30.230Z,2.75
2022-08-18T13:47:01.021Z,3.78
2022-08-18T13:49:33.728Z,2.05
2022-08-18T13:52:12.240Z,2.45
2022-08-18T13:54:55.431Z,2.70
2022-08-18T13:57:25.502Z,2.55
2022-08-18T13:59:56.066Z,3.40
2022-08-18T14:02:26.970Z,3.55
2022-08-18T14:04:59.470Z,3.58
2022-08-18T14:07:29.239Z,3.10
2022-08-18T14:09:59.011Z,4.70
2022-08-18T14:12:35.138Z,3.40
2022-08-18T14:15:06.830Z,3.55
2022-08-18T14:17:37.543Z,2.30
2022-08-18T14:20:27.412Z,2.88
2022-08-18T14:23:11.840Z,4.05
2022-08-18T14:25:54.388Z,2.85
2022-08-18T14:28:24.513Z,3.15
2022-08-18T14:30:55.461Z,2.22
2022-08-18T14:33:34.107Z,3.42
2022-08-18T14:36:20.186Z,3.65
2022-08-18T14:39:00.221Z,2.70
2022-08-18T14:41:31.074Z,4.13
2022-08-18T14:44:12.666Z,3.97
2022-08-18T14:46:52.438Z,3.67
2022-08-18T14:49:29.166Z,3.22
2022-08-18T14:52:02.760Z,7.53
2022-08-18T14:54:33.354Z,4.07
2022-08-18T14:57:05.560Z,2.90
2022-08-18T14:59:37.677Z,3.97
2022-08-18T15:02:11.242Z,3.10
2022-08-18T15:04:52.930Z,2.70
2022-08-18T15:07:29.293Z,2.72
2022-08-18T15:10:14.505Z,2.15
2022-08-18T15:12:47.113Z,2.42
2022-08-18T15:15:18.525Z,2.47
2022-08-18T15:17:53.022Z,2.22
2022-08-18T15:20:28.916Z,2.40
2022-08-18T15:23:22.606Z,3.22
2022-08-18T15:25:54.723Z,3.78
2022-08-18T15:28:28.100Z,2.85
2022-08-18T15:33:51.243Z,3.97
2022-08-18T15:36:28.739Z,1.98
2022-08-18T15:39:04.561Z,2.90
2022-08-18T15:41:43.791Z,2.08
2022-08-18T15:44:15.695Z,3.90
2022-08-18T15:46:47.308Z,4.20
2022-08-18T15:49:21.681Z,2.50
2022-08-18T15:51:52.542Z,2.78
2022-08-18T15:54:25.465Z,3.85
2022-08-18T15:56:57.595Z,3.35
2022-08-18T15:59:34.188Z,3.97
2022-08-18T16:02:11.411Z,3.03
2022-08-18T16:04:44.979Z,2.72
2022-08-18T16:07:17.929Z,5.20
2022-08-18T16:10:04.987Z,4.10
2022-08-18T16:12:34.709Z,2.97
2022-08-18T16:15:07.389Z,2.95
2022-08-18T16:17:38.513Z,2.63
2022-08-18T16:20:10.018Z,3.30
2022-08-18T16:22:40.699Z,2.22
2022-08-18T16:25:13.760Z,2.70
2022-08-18T16:27:44.218Z,4.53
2022-08-18T16:30:17.316Z,2.72
2022-08-18T16:32:47.628Z,2.65
2022-08-18T16:35:18.781Z,2.50
2022-08-18T16:37:49.790Z,2.33
2022-08-18T16:40:23.590Z,2.08
2022-08-18T16:42:59.486Z,3.50
2022-08-18T16:45:31.452Z,2.75
2022-08-18T16:48:01.179Z,3.20
2022-08-18T16:50:31.529Z,4.15
2022-08-18T16:53:01.286Z,2.15
2022-08-18T16:55:34.359Z,2.38
2022-08-18T16:58:16.571Z,3.45
2022-08-18T17:00:58.893Z,2.20
2022-08-18T17:03:41.641Z,4.13
2022-08-18T17:06:14.078Z,3.35
2022-08-18T17:08:45.013Z,3.20
2022-08-18T17:11:20.011Z,2.50
2022-08-18T17:13:51.436Z,2.70
2022-08-18T17:16:22.506Z,3.60
2022-08-18T17:18:52.244Z,3.97
2022-08-18T17:21:26.054Z,3.90
2022-08-18T17:23:57.482Z,3.60
2022-08-18T17:26:42.744Z,4.55
2022-08-18T17:29:19.124Z,4.32
2022-08-18T17:31:53.254Z,3.00
2022-08-18T17:34:25.969Z,2.95
2022-08-18T17:36:58.619Z,3.55
2022-08-18T17:39:35.926Z,2.55
2022-08-18T17:42:21.461Z,2.80
2022-08-18T17:44:52.637Z,3.00
2022-08-18T17:47:33.383Z,3.45
2022-08-18T17:50:26.979Z,2.72
2022-08-18T17:53:05.520Z,3.63
2022-08-18T17:55:41.369Z,3.10
2022-08-18T17:58:22.378Z,3.60
2022-08-18T18:00:52.670Z,3.95
2022-08-18T18:03:23.130Z,3.17
2022-08-18T18:05:58.158Z,3.08
2022-08-18T18:08:56.421Z,2.10
2022-08-18T18:11:33.927Z,4.88
2022-08-18T18:14:28.846Z,4.55
2022-08-18T18:17:13.892Z,3.83
2022-08-18T18:19:45.001Z,4.38
2022-08-18T18:22:21.624Z,3.90
2022-08-18T18:24:55.395Z,2.80
2022-08-18T18:27:31.822Z,2.60
2022-08-18T18:30:06.948Z,2.63
2022-08-18T18:32:39.427Z,5.45
2022-08-18T18:35:23.722Z,2.53
2022-08-18T18:37:57.791Z,2.53
2022-08-18T18:40:40.212Z,3.38
2022-08-18T18:43:25.998Z,2.90
2022-08-18T18:46:30.051Z,2.13
2022-08-18T18:49:10.522Z,2.17
2022-08-18T18:51:50.707Z,2.17
2022-08-18T18:54:34.166Z,2.95
2022-08-18T18:57:12.100Z,2.40
2022-08-18T19:02:34.011Z,4.80
2022-08-18T19:05:20.256Z,3.38
2022-08-18T19:07:59.897Z,3.00
2022-08-18T19:10:37.296Z,2.75
2022-08-18T19:13:32.246Z,2.83
2022-08-18T19:16:23.722Z,2.10
2022-08-18T19:18:57.948Z,2.40
2022-08-18T19:22:04.397Z,2.58
2022-08-18T19:24:42.115Z,2.40
2022-08-18T19:27:23.281Z,3.38
2022-08-18T19:29:55.157Z,2.78
2022-08-18T19:32:40.946Z,2.95
2022-08-18T19:35:16.326Z,3.15
2022-08-18T19:38:20.981Z,3.28
2022-08-18T19:40:55.564Z,2.97
2022-08-18T19:43:45.088Z,3.38
2022-08-18T19:46:19.058Z,2.53
2022-08-18T19:48:58.175Z,2.88
2022-08-18T19:51:34.532Z,3.97
2022-08-18T19:54:29.261Z,4.93
2022-08-18T19:57:11.283Z,2.78
2022-08-18T20:00:08.996Z,9.73
2022-08-18T20:02:55.371Z,4.10
2022-08-18T20:05:39.177Z,2.65
2022-08-18T20:08:38.226Z,3.03
2022-08-18T20:11:41.483Z,3.00
2022-08-18T20:14:14.797Z,3.38
2022-08-18T20:16:46.090Z,2.60
2022-08-18T20:19:50.740Z,2.70
2022-08-18T20:22:39.224Z,3.60
2022-08-18T20:25:34.299Z,3.38
2022-08-18T20:28:26.443Z,3.47
2022-08-18T20:31:04.964Z,3.22
2022-08-18T20:33:43.908Z,4.57
2022-08-18T20:36:23.400Z,4.30
2022-08-18T20:38:55.193Z,3.35
2022-08-18T20:41:51.092Z,4.38
2022-08-18T20:44:48.098Z,3.45
2022-08-18T20:47:55.284Z,3.65
2022-08-18T20:50:44.655Z,4.82
2022-08-18T20:53:22.939Z,4.15
2022-08-18T20:55:59.963Z,4.70
2022-08-18T20:58:34.903Z,4.38
2022-08-18T21:01:08.282Z,4.85
2022-08-18T21:03:39.684Z,4.60
2022-08-18T21:06:10.993Z,4.07
2022-08-18T21:08:47.467Z,3.47
2022-08-18T21:11:32.264Z,5.07
2022-08-18T21:14:04.362Z,4.45
2022-08-18T21:16:43.437Z,3.42
2022-08-18T21:19:19.785Z,4.15
2022-08-18T21:21:52.977Z,3.08
2022-08-18T21:24:30.406Z,3.67
2022-08-18T21:27:02.667Z,4.72
2022-08-18T21:29:46.942Z,4.38
2022-08-18T21:32:25.107Z,3.58
2022-08-18T21:34:54.867Z,4.25
2022-08-18T21:37:24.752Z,3.00
2022-08-18T21:39:57.678Z,3.90
2022-08-18T21:42:31.861Z,4.45
2022-08-18T21:45:02.004Z,3.50
2022-08-18T21:47:36.791Z,4.50
2022-08-18T21:50:14.874Z,4.18
2022-08-18T21:52:53.358Z,4.45
2022-08-18T21:55:30.348Z,5.95
2022-08-18T21:58:07.836Z,4.00
2022-08-18T22:00:39.938Z,4.78
2022-08-18T22:03:31.575Z,3.80
2022-08-18T22:06:03.783Z,4.13
2022-08-18T22:08:36.385Z,3.63
2022-08-18T22:12:00.623Z,4.80
2022-08-18T22:14:53.771Z,5.13
2022-08-18T22:17:35.469Z,3.65
2022-08-18T22:20:40.330Z,4.07
2022-08-18T22:23:33.554Z,3.92
2022-08-18T22:26:11.109Z,4.65
2022-08-18T22:28:49.055Z,4.10
2022-08-18T22:31:21.226Z,5.60
2022-08-18T22:33:51.944Z,4.15
2022-08-18T22:36:28.243Z,3.95
2022-08-18T22:38:58.416Z,4.60
2022-08-18T22:41:28.467Z,5.65
2022-08-18T22:43:58.474Z,5.30
2022-08-18T22:46:28.851Z,5.82
2022-08-18T22:48:58.618Z,5.57
2022-08-18T22:51:32.559Z,5.18
2022-08-18T22:54:02.580Z,5.18
2022-08-18T22:56:34.897Z,4.95
2022-08-18T22:59:15.941Z,4.95
2022-08-18T23:01:51.827Z,4.63
2022-08-18T23:04:25.487Z,5.47
2022-08-18T23:06:59.085Z,4.82
2022-08-18T23:09:31.463Z,4.75
2022-08-18T23:12:05.252Z,4.78
2022-08-18T23:14:36.188Z,5.97
2022-08-18T23:17:07.984Z,6.63
2022-08-18T23:19:37.787Z,5.65
2022-08-18T23:22:12.541Z,5.47
2022-08-18T23:24:43.592Z,4.72
2022-08-18T23:27:13.268Z,5.30
2022-08-18T23:29:43.128Z,8.82
2022-08-18T23:32:13.463Z,4.43
2022-08-18T23:34:43.727Z,6.65
2022-08-18T23:37:16.070Z,5.28
2022-08-18T23:39:48.399Z,5.35
2022-08-18T23:42:18.216Z,5.05
2022-08-18T23:44:47.907Z,6.28
2022-08-18T23:47:19.653Z,7.13
2022-08-18T23:49:49.785Z,4.78
2022-08-18T23:52:22.144Z,5.65
2022-08-18T23:54:51.846Z,8.10
2022-08-18T23:57:21.561Z,6.22
2022-08-18T23:59:51.352Z,6.45
